Terminal Aerodrome Forecast
Issued by NWS

Home | Current Version | Previous Version | Text Only | Print | Product List | Glossary On
Versions: 1 2 3 4 5 6 7 8 9 10 11 12 13 14 15 16 17 18 19 20 21 22 23 24 25 26 27 28 29 30 31
791
FTUS41 KOKX 291938 AAA
TAFHPN
TAF AMD
KHPN 291938Z 2920/3018 09011KT P6SM SCT035 OVC120
      TEMPO 2920/2923 BKN035
     FM292300 08011KT P6SM OVC035
     FM300200 07015G22KT P6SM OVC025
     FM300600 04016G23KT P6SM OVC015
     FM301100 07017G24KT P6SM -RA OVC015
     FM301600 07018G26KT 3SM RA OVC010
      AMD NOT SKED=

USA.gov is the U.S. government's official web portal to all federal, state and local government web resources and services.